Time,TemperatureF,DewpointF,PressureIn,WindDirection,WindDirectionDegrees,WindSpeedMPH,WindSpeedGustMPH,Humidity,HourlyPrecipIn,Conditions,Clouds,dailyrainin,SoftwareType,DateUTC
2013-09-03 00:14:00,70.0,68.0,29.80,North,5,0.0,0.0,95,0.00,,,0.02,,2013-09-03 04:14:00,
2013-09-03 00:25:00,70.0,69.0,29.80,North,5,0.0,0.0,96,0.00,,,0.02,,2013-09-03 04:25:00,
2013-09-03 00:34:00,70.0,69.0,29.80,North,5,0.0,0.0,96,0.00,,,0.02,,2013-09-03 04:34:00,
2013-09-03 00:44:00,70.0,69.0,29.80,North,5,0.0,0.0,96,0.00,,,0.02,,2013-09-03 04:44:00,
2013-09-03 00:53:00,70.0,69.0,29.80,North,5,0.0,0.0,96,0.00,,,0.02,,2013-09-03 04:53:00,
2013-09-03 01:12:00,69.0,68.0,29.80,North,5,0.0,0.0,96,0.00,,,0.02,,2013-09-03 05:12:00,
2013-09-03 01:23:00,69.0,68.0,29.80,North,5,0.0,0.0,97,0.00,,,0.02,,2013-09-03 05:23:00,
2013-09-03 01:43:00,69.0,68.0,29.80,North,5,0.0,0.0,97,0.00,,,0.02,,2013-09-03 05:43:00,
2013-09-03 01:52:00,69.0,68.0,29.79,North,5,0.0,1.0,96,0.00,,,0.02,,2013-09-03 05:52:00,
2013-09-03 02:12:00,69.0,68.0,29.78,North,5,0.0,0.0,97,0.00,,,0.02,,2013-09-03 06:12:00,
2013-09-03 02:22:00,69.0,68.0,29.78,North,5,0.0,0.0,97,0.00,,,0.02,,2013-09-03 06:22:00,
2013-09-03 02:43:00,69.0,68.0,29.77,North,5,0.0,0.0,97,0.00,,,0.02,,2013-09-03 06:43:00,
2013-09-03 02:52:00,68.0,67.0,29.77,North,5,0.0,1.0,97,0.00,,,0.02,,2013-09-03 06:52:00,
2013-09-03 03:12:00,68.0,67.0,29.77,North,5,0.0,0.0,97,0.00,,,0.02,,2013-09-03 07:12:00,
2013-09-03 03:22:00,68.0,67.0,29.78,North,5,0.0,0.0,97,0.00,,,0.02,,2013-09-03 07:22:00,
2013-09-03 03:53:00,68.0,67.0,29.78,North,5,0.0,1.0,97,0.00,,,0.02,,2013-09-03 07:53:00,
2013-09-03 04:11:00,68.0,67.0,29.78,North,5,0.0,0.0,97,0.00,,,0.02,,2013-09-03 08:11:00,
2013-09-03 04:22:00,68.0,67.0,29.79,North,5,0.0,0.0,97,0.00,,,0.02,,2013-09-03 08:22:00,
2013-09-03 04:52:00,67.0,66.0,29.79,North,5,0.0,2.0,97,0.00,,,0.02,,2013-09-03 08:52:00,
2013-09-03 05:11:00,67.0,66.0,29.79,North,5,0.0,0.0,97,0.00,,,0.02,,2013-09-03 09:11:00,
2013-09-03 05:22:00,67.0,66.0,29.78,North,5,0.0,0.0,97,0.00,,,0.02,,2013-09-03 09:22:00,
2013-09-03 05:43:00,67.0,66.0,29.78,North,5,0.0,1.0,98,0.00,,,0.02,,2013-09-03 09:43:00,
2013-09-03 05:53:00,67.0,66.0,29.79,North,5,0.0,1.0,98,0.00,,,0.02,,2013-09-03 09:53:00,
2013-09-03 06:13:00,67.0,66.0,29.80,North,5,0.0,3.0,98,0.00,,,0.02,,2013-09-03 10:13:00,
2013-09-03 06:23:00,68.0,67.0,29.80,North,5,0.0,1.0,98,0.00,,,0.02,,2013-09-03 10:23:00,
2013-09-03 06:42:00,68.0,67.0,29.81,North,5,0.0,0.0,98,0.00,,,0.02,,2013-09-03 10:42:00,
2013-09-03 06:53:00,68.0,67.0,29.81,North,5,0.0,2.0,98,0.00,,,0.02,,2013-09-03 10:53:00,
2013-09-03 07:12:00,67.0,66.0,29.83,North,5,0.0,2.0,98,0.00,,,0.02,,2013-09-03 11:12:00,
2013-09-03 07:23:00,67.0,64.0,29.83,North,5,0.0,6.0,91,0.00,,,0.02,,2013-09-03 11:23:00,
2013-09-03 07:43:00,68.0,65.0,29.83,North,5,1.0,3.0,91,0.00,,,0.02,,2013-09-03 11:43:00,
2013-09-03 07:52:00,68.0,65.0,29.83,North,5,0.0,2.0,91,0.00,,,0.02,,2013-09-03 11:52:00,
2013-09-03 08:12:00,68.0,66.0,29.84,North,5,0.0,2.0,92,0.01,,,0.03,,2013-09-03 12:12:00,
2013-09-03 08:22:00,67.0,65.0,29.84,North,5,0.0,7.0,92,0.03,,,0.04,,2013-09-03 12:22:00,
2013-09-03 08:42:00,67.0,65.0,29.83,North,5,1.0,3.0,94,0.03,,,0.04,,2013-09-03 12:42:00,
2013-09-03 08:52:00,66.0,64.0,29.82,North,5,0.0,11.0,94,0.03,,,0.04,,2013-09-03 12:52:00,
2013-09-03 09:11:00,66.0,65.0,29.80,North,5,1.0,3.0,95,0.03,,,0.05,,2013-09-03 13:11:00,
2013-09-03 09:22:00,66.0,64.0,29.80,North,5,0.0,7.0,94,0.01,,,0.05,,2013-09-03 13:22:00,
2013-09-03 09:42:00,66.0,65.0,29.81,North,5,0.0,3.0,95,0.01,,,0.05,,2013-09-03 13:42:00,
2013-09-03 09:52:00,66.0,65.0,29.82,North,5,0.0,1.0,96,0.01,,,0.05,,2013-09-03 13:52:00,
2013-09-03 10:11:00,66.0,65.0,29.83,North,5,1.0,4.0,96,0.00,,,0.05,,2013-09-03 14:11:00,
2013-09-03 10:21:00,67.0,66.0,29.83,North,5,0.0,4.0,95,0.00,,,0.05,,2013-09-03 14:21:00,
2013-09-03 10:42:00,67.0,66.0,29.83,North,5,0.0,2.0,95,0.00,,,0.05,,2013-09-03 14:42:00,
2013-09-03 10:52:00,68.0,67.0,29.84,North,5,1.0,5.0,95,0.00,,,0.05,,2013-09-03 14:52:00,
2013-09-03 11:22:00,72.0,68.0,29.85,North,5,1.0,4.0,88,0.00,,,0.05,,2013-09-03 15:22:00,
2013-09-03 11:43:00,75.0,70.0,29.85,North,5,0.0,2.0,84,0.00,,,0.05,,2013-09-03 15:43:00,
2013-09-03 11:54:00,77.0,69.0,29.86,North,5,0.0,4.0,77,0.00,,,0.05,,2013-09-03 15:54:00,
2013-09-03 12:14:00,79.0,70.0,29.86,North,5,0.0,2.0,73,0.00,,,0.05,,2013-09-03 16:14:00,
2013-09-03 12:24:00,81.0,69.0,29.86,North,5,1.0,3.0,66,0.00,,,0.05,,2013-09-03 16:24:00,
2013-09-03 12:43:00,83.0,71.0,29.86,North,5,0.0,2.0,68,0.00,,,0.05,,2013-09-03 16:43:00,
2013-09-03 12:54:00,84.0,70.0,29.86,North,5,1.0,3.0,64,0.00,,,0.05,,2013-09-03 16:54:00,
2013-09-03 13:13:00,85.0,69.0,29.85,North,5,1.0,5.0,59,0.00,,,0.05,,2013-09-03 17:13:00,
2013-09-03 13:23:00,86.0,69.0,29.85,North,5,0.0,5.0,58,0.00,,,0.05,,2013-09-03 17:23:00,
2013-09-03 13:43:00,87.0,71.0,29.85,North,5,2.0,4.0,60,0.00,,,0.05,,2013-09-03 17:43:00,
2013-09-03 13:52:00,87.0,70.0,29.84,North,5,2.0,6.0,57,0.00,,,0.05,,2013-09-03 17:52:00,
2013-09-03 14:12:00,88.0,71.0,29.84,North,5,0.0,4.0,57,0.00,,,0.05,,2013-09-03 18:12:00,
2013-09-03 14:22:00,88.0,70.0,29.84,North,5,1.0,4.0,55,0.00,,,0.05,,2013-09-03 18:22:00,
2013-09-03 14:43:00,88.0,70.0,29.84,North,5,2.0,5.0,56,0.00,,,0.05,,2013-09-03 18:43:00,
2013-09-03 14:52:00,89.0,70.0,29.83,North,5,1.0,4.0,54,0.00,,,0.05,,2013-09-03 18:52:00,
2013-09-03 15:11:00,89.0,71.0,29.83,North,5,0.0,4.0,55,0.00,,,0.05,,2013-09-03 19:11:00,
2013-09-03 15:22:00,89.0,70.0,29.82,North,5,0.0,7.0,54,0.00,,,0.05,,2013-09-03 19:22:00,
2013-09-03 15:32:00,89.0,70.0,29.82,North,5,0.0,7.0,54,0.00,,,0.05,,2013-09-03 19:32:00,
2013-09-03 15:42:00,89.0,70.0,29.82,North,5,0.0,7.0,54,0.00,,,0.05,,2013-09-03 19:42:00,
2013-09-03 15:52:00,89.0,73.0,29.82,North,5,0.0,3.0,60,0.00,,,0.05,,2013-09-03 19:52:00,
2013-09-03 16:11:00,88.0,74.0,29.82,North,5,0.0,1.0,64,0.00,,,0.05,,2013-09-03 20:11:00,
2013-09-03 16:22:00,88.0,76.0,29.81,North,5,1.0,3.0,67,0.00,,,0.05,,2013-09-03 20:22:00,
2013-09-03 16:42:00,87.0,74.0,29.81,North,5,0.0,0.0,66,0.00,,,0.05,,2013-09-03 20:42:00,
2013-09-03 16:52:00,85.0,74.0,29.80,North,5,0.0,0.0,70,0.00,,,0.05,,2013-09-03 20:52:00,
2013-09-03 17:12:00,84.0,74.0,29.80,North,5,0.0,2.0,73,0.00,,,0.05,,2013-09-03 21:12:00,
2013-09-03 17:22:00,84.0,75.0,29.80,North,5,0.0,1.0,75,0.00,,,0.05,,2013-09-03 21:22:00,
2013-09-03 17:44:00,83.0,75.0,29.80,North,5,0.0,0.0,76,0.00,,,0.05,,2013-09-03 21:44:00,
2013-09-03 17:54:00,83.0,75.0,29.80,North,5,0.0,1.0,77,0.00,,,0.05,,2013-09-03 21:54:00,
2013-09-03 18:13:00,82.0,74.0,29.80,North,5,0.0,0.0,78,0.00,,,0.05,,2013-09-03 22:13:00,
2013-09-03 18:24:00,80.0,74.0,29.81,North,5,0.0,0.0,81,0.00,,,0.05,,2013-09-03 22:24:00,
2013-09-03 18:52:00,79.0,73.0,29.81,North,5,0.0,0.0,82,0.00,,,0.05,,2013-09-03 22:52:00,
2013-09-03 19:12:00,79.0,74.0,29.81,North,5,0.0,0.0,85,0.00,,,0.05,,2013-09-03 23:12:00,
2013-09-03 19:23:00,79.0,74.0,29.81,North,5,0.0,0.0,86,0.00,,,0.05,,2013-09-03 23:23:00,
2013-09-03 19:42:00,78.0,73.0,29.81,North,5,0.0,0.0,85,0.00,,,0.05,,2013-09-03 23:42:00,
2013-09-03 19:53:00,76.0,71.0,29.82,North,5,0.0,0.0,85,0.00,,,0.05,,2013-09-03 23:53:00,
2013-09-03 20:22:00,74.0,71.0,29.83,North,5,0.0,0.0,89,0.00,,,0.05,,2013-09-04 00:22:00,
2013-09-03 21:12:00,72.0,69.0,29.85,North,5,0.0,1.0,90,0.00,,,0.05,,2013-09-04 01:12:00,
2013-09-03 21:22:00,71.0,68.0,29.86,North,5,0.0,1.0,91,0.00,,,0.05,,2013-09-04 01:22:00,
2013-09-03 21:42:00,71.0,69.0,29.87,North,5,0.0,1.0,92,0.00,,,0.05,,2013-09-04 01:42:00,
2013-09-03 21:52:00,71.0,69.0,29.88,North,5,0.0,2.0,92,0.00,,,0.05,,2013-09-04 01:52:00,
2013-09-03 22:11:00,70.0,68.0,29.88,North,5,0.0,1.0,92,0.00,,,0.05,,2013-09-04 02:11:00,
2013-09-03 22:22:00,70.0,68.0,29.89,North,5,0.0,0.0,93,0.00,,,0.05,,2013-09-04 02:22:00,
2013-09-03 22:43:00,70.0,68.0,29.90,North,5,0.0,1.0,93,0.00,,,0.05,,2013-09-04 02:43:00,
2013-09-03 22:52:00,69.0,67.0,29.90,North,5,0.0,0.0,93,0.00,,,0.05,,2013-09-04 02:52:00,
2013-09-03 23:12:00,69.0,67.0,29.90,North,5,0.0,0.0,93,0.00,,,0.05,,2013-09-04 03:12:00,
2013-09-03 23:22:00,69.0,67.0,29.91,North,5,0.0,0.0,94,0.00,,,0.05,,2013-09-04 03:22:00,
2013-09-03 23:44:00,69.0,67.0,29.91,North,5,0.0,0.0,94,0.00,,,0.04,,2013-09-04 03:44:00,
2013-09-03 23:54:00,68.0,66.0,29.91,North,5,0.0,0.0,94,0.00,,,0.04,,2013-09-04 03:54:00,